createdAt,value
2023-04-27T00:00:55.005Z,40.56
2023-04-27T00:03:40.136Z,40.41
2023-04-27T00:06:25.065Z,40.07
2023-04-27T00:09:10.071Z,40.02
2023-04-27T00:11:55.061Z,40.11
2023-04-27T00:14:40.056Z,40.38
2023-04-27T00:17:25.128Z,40.33
2023-04-27T00:20:09.917Z,40.47
2023-04-27T00:22:54.938Z,40.55
2023-04-27T00:25:39.875Z,40.71
2023-04-27T00:28:24.853Z,41.21
2023-04-27T00:31:09.824Z,40.87
2023-04-27T00:33:54.744Z,41.13
2023-04-27T00:36:39.835Z,40.72
2023-04-27T00:39:24.783Z,40.95
2023-04-27T00:42:09.854Z,42.16
2023-04-27T00:44:54.724Z,41.61
2023-04-27T00:47:39.835Z,41.56
2023-04-27T00:50:24.815Z,41.40
2023-04-27T00:53:09.686Z,41.44
2023-04-27T00:55:54.868Z,41.13
2023-04-27T00:58:39.901Z,40.80
2023-04-27T01:01:25.118Z,41.40
2023-04-27T01:04:10.323Z,41.07
2023-04-27T01:06:55.685Z,41.59
2023-04-27T01:09:41.118Z,41.53
2023-04-27T01:12:26.126Z,41.08
2023-04-27T01:15:11.076Z,41.10
2023-04-27T01:17:55.961Z,41.14
2023-04-27T01:20:41.032Z,41.25
2023-04-27T01:23:25.923Z,41.17
2023-04-27T01:26:10.912Z,41.25
2023-04-27T01:28:55.712Z,41.41
2023-04-27T01:31:40.901Z,41.53
2023-04-27T01:34:25.599Z,41.98
2023-04-27T01:37:10.609Z,41.41
2023-04-27T01:39:55.591Z,42.04
2023-04-27T01:42:40.455Z,42.15
2023-04-27T01:45:25.530Z,41.80
2023-04-27T01:48:10.502Z,41.72
2023-04-27T01:50:55.519Z,42.35
2023-04-27T01:53:40.373Z,42.06
2023-04-27T01:56:25.267Z,41.54
2023-04-27T01:59:10.296Z,42.15
2023-04-27T02:01:55.371Z,41.51
2023-04-27T02:04:40.737Z,42.42
2023-04-27T02:07:25.504Z,42.50
2023-04-27T02:10:10.663Z,42.00
2023-04-27T02:12:55.819Z,42.12
2023-04-27T02:15:40.804Z,41.88
2023-04-27T02:18:25.529Z,41.87
2023-04-27T02:21:10.472Z,41.82
2023-04-27T02:23:55.505Z,42.29
2023-04-27T02:26:40.549Z,42.82
2023-04-27T02:29:25.579Z,43.05
2023-04-27T02:32:11.035Z,43.03
2023-04-27T02:34:56.236Z,42.86
2023-04-27T02:37:41.152Z,42.62
2023-04-27T02:40:26.263Z,42.90
2023-04-27T02:43:11.269Z,43.28
2023-04-27T02:45:56.373Z,43.43
2023-04-27T02:48:41.457Z,43.46
2023-04-27T02:51:26.397Z,43.48
2023-04-27T02:54:11.313Z,43.93
2023-04-27T02:56:56.276Z,43.16
2023-04-27T02:59:41.219Z,43.33
2023-04-27T03:02:26.134Z,43.25
2023-04-27T03:05:10.948Z,43.68
2023-04-27T03:07:55.985Z,43.54
2023-04-27T03:10:40.989Z,43.48
2023-04-27T03:13:26.102Z,43.32
2023-04-27T03:16:10.939Z,43.70
2023-04-27T03:18:55.992Z,43.62
2023-04-27T03:21:40.858Z,43.35
2023-04-27T03:24:25.827Z,43.57
2023-04-27T03:27:10.586Z,43.43
2023-04-27T03:29:55.668Z,43.87
2023-04-27T03:32:40.554Z,44.02
2023-04-27T03:35:25.494Z,43.96
2023-04-27T03:38:10.535Z,44.21
2023-04-27T03:40:55.569Z,44.21
2023-04-27T03:43:40.719Z,44.54
2023-04-27T03:46:25.558Z,44.16
2023-04-27T03:49:10.528Z,44.14
2023-04-27T03:51:55.376Z,44.20
2023-04-27T03:54:40.420Z,44.17
2023-04-27T03:57:25.619Z,43.85
2023-04-27T04:00:10.347Z,43.94
2023-04-27T04:02:55.477Z,44.20
2023-04-27T04:05:40.195Z,43.92
2023-04-27T04:08:25.204Z,43.74
2023-04-27T04:11:10.288Z,44.08
2023-04-27T04:13:55.340Z,44.33
2023-04-27T04:16:40.344Z,44.49
2023-04-27T04:19:25.378Z,44.62
2023-04-27T04:22:10.115Z,44.68
2023-04-27T04:24:54.635Z,44.66
2023-04-27T04:27:39.676Z,44.53
2023-04-27T04:30:24.497Z,44.12
2023-04-27T04:33:09.296Z,43.90
2023-04-27T04:35:54.133Z,43.88
2023-04-27T04:38:38.999Z,44.09
2023-04-27T04:41:23.949Z,43.95
2023-04-27T04:44:08.717Z,43.96
2023-04-27T04:46:53.768Z,44.41
2023-04-27T04:49:38.644Z,44.71
2023-04-27T04:52:23.315Z,45.02
2023-04-27T04:55:08.113Z,45.47
2023-04-27T04:57:53.225Z,45.61
2023-04-27T05:00:37.995Z,45.94
2023-04-27T05:03:23.018Z,46.00
2023-04-27T05:06:07.930Z,46.18
2023-04-27T05:08:52.914Z,46.07
2023-04-27T05:11:37.839Z,46.11
2023-04-27T05:14:22.584Z,46.51
2023-04-27T05:17:07.649Z,46.38
2023-04-27T05:19:52.464Z,46.49
2023-04-27T05:22:37.536Z,46.88
2023-04-27T05:25:22.336Z,46.91
2023-04-27T05:28:07.363Z,47.12
2023-04-27T05:30:52.177Z,46.98
2023-04-27T05:33:37.049Z,47.06
2023-04-27T05:36:22.053Z,47.77
2023-04-27T05:39:07.003Z,47.30
2023-04-27T05:41:51.962Z,46.53
2023-04-27T05:44:36.776Z,47.41
2023-04-27T05:47:21.742Z,46.56
2023-04-27T05:50:06.700Z,45.80
2023-04-27T05:52:51.603Z,45.40
2023-04-27T05:55:36.648Z,46.51
2023-04-27T05:58:21.712Z,44.15
2023-04-27T06:01:06.794Z,45.48
2023-04-27T06:03:51.548Z,44.45
2023-04-27T06:06:36.419Z,44.50
2023-04-27T06:09:21.232Z,43.77
2023-04-27T06:12:06.170Z,43.52
2023-04-27T06:14:51.070Z,43.87
2023-04-27T06:17:36.077Z,43.65
2023-04-27T06:20:20.936Z,42.97
2023-04-27T06:23:05.773Z,42.46
2023-04-27T06:25:50.634Z,42.26
2023-04-27T06:28:35.487Z,42.58
2023-04-27T06:31:20.512Z,42.00
2023-04-27T06:34:05.458Z,41.91
2023-04-27T06:36:50.371Z,41.73
2023-04-27T06:39:35.391Z,42.10
2023-04-27T06:42:20.390Z,41.06
2023-04-27T06:45:05.356Z,40.82
2023-04-27T06:47:50.429Z,41.60
2023-04-27T06:50:35.424Z,40.45
2023-04-27T06:53:20.295Z,40.45
2023-04-27T06:56:05.187Z,41.11
2023-04-27T06:58:50.145Z,41.36
2023-04-27T07:01:35.414Z,41.63
2023-04-27T07:04:20.164Z,41.27
2023-04-27T07:07:05.103Z,41.45
2023-04-27T07:09:50.026Z,41.76
2023-04-27T07:12:34.769Z,41.50
2023-04-27T07:15:19.872Z,40.75
2023-04-27T07:18:06.063Z,40.48
2023-04-27T07:20:51.082Z,40.77
2023-04-27T07:23:35.983Z,41.11
2023-04-27T07:26:20.938Z,39.86
2023-04-27T07:29:18.792Z,40.47
2023-04-27T07:32:10.317Z,40.45
2023-04-27T07:34:55.230Z,40.62
2023-04-27T07:37:40.265Z,41.68
2023-04-27T07:40:25.312Z,41.07
2023-04-27T07:43:10.041Z,40.89
2023-04-27T07:45:55.152Z,40.98
2023-04-27T07:48:40.117Z,38.19
2023-04-27T07:51:25.122Z,38.92
2023-04-27T07:54:10.220Z,39.38
2023-04-27T07:56:55.024Z,39.66
2023-04-27T07:59:40.029Z,38.53
2023-04-27T08:02:25.212Z,40.28
2023-04-27T08:05:10.313Z,39.36
2023-04-27T08:07:55.564Z,39.05
2023-04-27T08:10:40.500Z,38.78
2023-04-27T08:13:25.621Z,38.22
2023-04-27T08:16:10.607Z,37.76
2023-04-27T08:18:55.627Z,38.81
2023-04-27T08:21:40.540Z,40.05
2023-04-27T08:24:25.722Z,37.04
2023-04-27T08:27:10.870Z,37.21
2023-04-27T08:29:55.621Z,37.25
2023-04-27T08:32:40.789Z,38.33
2023-04-27T08:35:25.491Z,37.00
2023-04-27T08:38:10.587Z,36.40
2023-04-27T08:40:55.556Z,36.44
2023-04-27T08:43:40.690Z,36.68
2023-04-27T08:46:25.590Z,37.93
2023-04-27T08:49:10.844Z,36.36
2023-04-27T08:51:55.543Z,35.49
2023-04-27T08:54:40.334Z,35.16
2023-04-27T08:57:25.166Z,35.30
2023-04-27T09:00:09.987Z,36.00
2023-04-27T09:02:55.185Z,35.53
2023-04-27T09:05:46.652Z,35.46
2023-04-27T09:08:41.295Z,34.01
2023-04-27T09:11:26.281Z,34.83
2023-04-27T09:14:11.262Z,34.84
2023-04-27T09:16:56.113Z,34.01
2023-04-27T09:19:40.958Z,33.70
2023-04-27T09:22:25.932Z,34.63
2023-04-27T09:25:10.898Z,34.71
2023-04-27T09:27:55.937Z,35.52
2023-04-27T09:30:40.847Z,35.79
2023-04-27T09:33:25.945Z,36.02
2023-04-27T09:36:10.927Z,36.20
2023-04-27T09:38:55.717Z,36.09
2023-04-27T09:41:40.844Z,35.99
2023-04-27T09:44:25.480Z,35.27
2023-04-27T09:47:10.667Z,35.62
2023-04-27T09:49:55.570Z,35.52
2023-04-27T09:52:40.620Z,34.75
2023-04-27T09:55:25.630Z,35.56
2023-04-27T09:58:10.375Z,35.52
2023-04-27T10:00:55.365Z,35.50
2023-04-27T10:03:40.415Z,35.34
2023-04-27T10:06:25.351Z,34.66
2023-04-27T10:09:10.151Z,35.94
2023-04-27T10:11:55.044Z,35.23
2023-04-27T10:14:39.993Z,33.14
2023-04-27T10:17:25.103Z,33.72
2023-04-27T10:20:09.829Z,33.09
2023-04-27T10:22:54.701Z,31.53
2023-04-27T10:25:39.652Z,33.57
2023-04-27T10:28:24.466Z,33.24
2023-04-27T10:31:09.642Z,34.28
2023-04-27T10:33:54.597Z,31.08
2023-04-27T10:36:39.392Z,30.61
2023-04-27T10:39:30.058Z,33.21
2023-04-27T10:42:24.487Z,31.96
2023-04-27T10:45:09.422Z,30.51
2023-04-27T10:47:54.515Z,31.83
2023-04-27T10:50:39.283Z,31.03
2023-04-27T10:53:25.430Z,34.42
2023-04-27T10:56:10.498Z,31.71
2023-04-27T10:58:55.382Z,31.65
2023-04-27T11:01:40.288Z,31.26
2023-04-27T11:04:25.219Z,31.08
2023-04-27T11:07:09.994Z,30.55
2023-04-27T11:09:54.840Z,29.22
2023-04-27T11:12:39.699Z,30.29
2023-04-27T11:15:24.782Z,29.32
2023-04-27T11:18:09.418Z,30.42
2023-04-27T11:20:54.343Z,29.73
2023-04-27T11:23:39.385Z,30.57
2023-04-27T11:26:24.309Z,29.23
2023-04-27T11:29:09.142Z,30.43
2023-04-27T11:31:54.246Z,30.12
2023-04-27T11:34:39.280Z,29.65
2023-04-27T11:37:24.304Z,29.59
2023-04-27T11:40:09.475Z,29.82
2023-04-27T11:42:54.512Z,29.36
2023-04-27T11:45:39.579Z,29.38
2023-04-27T11:48:24.447Z,28.43
2023-04-27T11:51:09.300Z,27.97
2023-04-27T11:53:54.294Z,29.15
2023-04-27T11:56:39.301Z,31.61
2023-04-27T11:59:24.438Z,28.90
2023-04-27T12:02:09.297Z,28.57
2023-04-27T12:04:54.479Z,28.19
2023-04-27T12:07:39.644Z,28.22
2023-04-27T12:10:24.696Z,28.55
2023-04-27T12:13:09.606Z,29.03
2023-04-27T12:15:54.748Z,27.57
2023-04-27T12:18:39.726Z,27.94
2023-04-27T12:21:24.820Z,27.41
2023-04-27T12:24:09.773Z,28.29
2023-04-27T12:26:54.759Z,28.76
2023-04-27T12:29:39.769Z,27.96
2023-04-27T12:32:24.428Z,27.53
2023-04-27T12:35:09.517Z,27.28
2023-04-27T12:37:54.148Z,25.24
2023-04-27T12:40:39.202Z,27.25
2023-04-27T12:43:24.172Z,25.55
2023-04-27T12:46:09.154Z,27.07
2023-04-27T12:48:54.176Z,25.77
2023-04-27T12:51:39.039Z,27.68
2023-04-27T12:54:24.086Z,26.72
2023-04-27T12:57:09.141Z,27.36
2023-04-27T12:59:54.175Z,26.42
2023-04-27T13:02:39.154Z,26.41
2023-04-27T13:05:23.815Z,26.93
2023-04-27T13:08:08.662Z,27.15
2023-04-27T13:10:53.603Z,26.82
2023-04-27T13:13:38.853Z,26.78
2023-04-27T13:16:23.975Z,25.75
2023-04-27T13:19:08.783Z,26.01
2023-04-27T13:21:53.267Z,26.80
2023-04-27T13:24:38.222Z,25.11
2023-04-27T13:27:23.088Z,24.17
2023-04-27T13:30:07.980Z,24.40
2023-04-27T13:32:52.884Z,24.83
2023-04-27T13:35:37.765Z,25.06
2023-04-27T13:38:22.834Z,25.87
2023-04-27T13:41:07.785Z,26.07
2023-04-27T13:43:52.692Z,25.44
2023-04-27T13:46:37.611Z,25.29
2023-04-27T13:49:22.435Z,26.67
2023-04-27T13:52:07.243Z,22.41
2023-04-27T13:54:52.067Z,24.11
2023-04-27T13:57:36.854Z,26.06
2023-04-27T14:00:21.808Z,25.96
2023-04-27T14:03:07.027Z,24.93
2023-04-27T14:05:51.774Z,25.73
2023-04-27T14:08:36.926Z,25.18
2023-04-27T14:11:21.778Z,25.25
2023-04-27T14:14:06.755Z,25.46
2023-04-27T14:16:51.633Z,25.19
2023-04-27T14:19:36.684Z,25.59
2023-04-27T14:22:21.814Z,25.45
2023-04-27T14:25:06.693Z,25.83
2023-04-27T14:27:51.957Z,25.71
2023-04-27T14:30:36.861Z,26.09
2023-04-27T14:33:21.860Z,25.29
2023-04-27T14:36:06.931Z,26.59
2023-04-27T14:38:51.779Z,28.21
2023-04-27T14:41:36.719Z,27.56
2023-04-27T14:44:21.624Z,27.39
2023-04-27T14:47:06.712Z,27.07
2023-04-27T14:49:51.845Z,26.54
2023-04-27T14:52:37.009Z,27.37
2023-04-27T14:55:22.027Z,26.91
2023-04-27T14:58:06.980Z,27.59
2023-04-27T15:00:51.999Z,27.65
2023-04-27T15:03:36.986Z,27.11
2023-04-27T15:06:21.939Z,27.62
2023-04-27T15:09:06.856Z,27.50
2023-04-27T15:11:54.058Z,26.06
2023-04-27T15:14:39.939Z,27.36
2023-04-27T15:17:24.975Z,26.16
2023-04-27T15:20:09.838Z,25.30
2023-04-27T15:22:54.644Z,25.39
2023-04-27T15:25:39.569Z,25.90
2023-04-27T15:28:24.506Z,25.43
2023-04-27T15:31:09.970Z,25.41
2023-04-27T15:33:55.141Z,27.19
2023-04-27T15:36:39.883Z,25.97
2023-04-27T15:39:24.585Z,24.83
2023-04-27T15:42:09.702Z,24.56
2023-04-27T15:44:55.074Z,25.20
2023-04-27T15:47:41.244Z,26.22
2023-04-27T15:50:26.432Z,25.67
2023-04-27T15:53:11.071Z,25.76
2023-04-27T15:55:55.744Z,26.59
2023-04-27T15:58:40.700Z,25.97
2023-04-27T16:01:25.945Z,26.65
2023-04-27T16:04:11.224Z,25.43
2023-04-27T16:06:56.218Z,26.73
2023-04-27T16:09:41.334Z,26.58
2023-04-27T16:12:25.987Z,26.70
2023-04-27T16:15:11.698Z,26.71
2023-04-27T16:17:56.498Z,27.91
2023-04-27T16:20:41.357Z,28.83
2023-04-27T16:23:26.271Z,27.47
2023-04-27T16:26:11.097Z,27.53
2023-04-27T16:28:56.208Z,27.35
2023-04-27T16:31:41.005Z,29.06
2023-04-27T16:34:26.479Z,29.81
2023-04-27T16:37:11.319Z,30.29
2023-04-27T16:39:56.116Z,30.62
2023-04-27T16:42:41.013Z,30.44
2023-04-27T16:45:26.043Z,29.02
2023-04-27T16:48:10.957Z,29.67
2023-04-27T16:50:55.928Z,30.99
2023-04-27T16:53:41.118Z,31.54
2023-04-27T16:56:25.938Z,31.38
2023-04-27T16:59:11.217Z,31.94
2023-04-27T17:01:58.738Z,30.33
2023-04-27T17:04:48.892Z,31.06
2023-04-27T17:07:34.032Z,32.82
2023-04-27T17:10:18.684Z,32.09
2023-04-27T17:13:03.515Z,32.36
2023-04-27T17:15:48.548Z,32.72
2023-04-27T17:18:33.462Z,32.09
2023-04-27T17:21:18.366Z,33.20
2023-04-27T17:24:03.371Z,32.85
2023-04-27T17:26:48.261Z,32.81
2023-04-27T17:29:33.157Z,32.88
2023-04-27T17:32:18.231Z,32.85
2023-04-27T17:35:03.230Z,34.22
2023-04-27T17:37:48.033Z,33.59
2023-04-27T17:40:33.237Z,32.81
2023-04-27T17:43:18.219Z,34.20
2023-04-27T17:46:03.261Z,34.85
2023-04-27T17:48:48.185Z,34.80
2023-04-27T17:51:33.263Z,35.85
2023-04-27T17:54:18.135Z,34.39
2023-04-27T17:57:03.149Z,35.63
2023-04-27T17:59:48.077Z,35.35
2023-04-27T18:02:32.979Z,35.73
2023-04-27T18:05:17.910Z,35.56
2023-04-27T18:08:02.844Z,35.88
2023-04-27T18:10:47.583Z,35.80
2023-04-27T18:13:32.467Z,35.14
2023-04-27T18:16:17.477Z,35.67
2023-04-27T18:19:02.467Z,35.66
2023-04-27T18:21:47.250Z,34.90
2023-04-27T18:24:32.366Z,34.90
2023-04-27T18:27:17.314Z,34.91
2023-04-27T18:30:02.393Z,35.28
2023-04-27T18:32:47.321Z,35.73
2023-04-27T18:35:32.449Z,36.13
2023-04-27T18:38:17.300Z,35.96
2023-04-27T18:41:02.303Z,35.49
2023-04-27T18:43:47.088Z,35.64
2023-04-27T18:46:34.491Z,36.09
2023-04-27T18:49:21.497Z,36.15
2023-04-27T18:52:06.232Z,35.15
2023-04-27T18:54:51.268Z,35.79
2023-04-27T18:57:36.268Z,35.77
2023-04-27T19:00:20.992Z,35.20
2023-04-27T19:03:06.294Z,35.32
2023-04-27T19:05:51.144Z,35.81
2023-04-27T19:08:36.065Z,35.90
2023-04-27T19:11:20.901Z,35.66
2023-04-27T19:14:06.071Z,36.29
2023-04-27T19:16:50.999Z,36.64
2023-04-27T19:19:35.901Z,37.06
2023-04-27T19:22:20.757Z,36.80
2023-04-27T19:25:05.581Z,35.88
2023-04-27T19:27:50.552Z,36.03
2023-04-27T19:30:35.372Z,36.26
2023-04-27T19:33:20.530Z,36.35
2023-04-27T19:36:05.028Z,36.29
2023-04-27T19:38:50.120Z,34.97
2023-04-27T19:41:34.781Z,36.42
2023-04-27T19:44:19.656Z,36.86
2023-04-27T19:47:04.704Z,37.12
2023-04-27T19:49:49.587Z,36.82
2023-04-27T19:52:34.530Z,37.27
2023-04-27T19:55:19.256Z,37.04
2023-04-27T19:58:04.262Z,37.95
2023-04-27T20:00:49.082Z,37.38
2023-04-27T20:03:34.269Z,37.13
2023-04-27T20:06:19.042Z,36.22
2023-04-27T20:09:04.053Z,36.48
2023-04-27T20:11:48.902Z,36.71
2023-04-27T20:14:33.810Z,36.80
2023-04-27T20:17:18.688Z,36.52
2023-04-27T20:20:03.499Z,37.50
2023-04-27T20:22:48.409Z,37.85
2023-04-27T20:25:33.227Z,38.11
2023-04-27T20:28:20.233Z,38.40
2023-04-27T20:31:05.203Z,38.56
2023-04-27T20:33:49.967Z,38.72
2023-04-27T20:36:34.951Z,38.90
2023-04-27T20:39:19.780Z,38.56
2023-04-27T20:42:04.821Z,38.15
2023-04-27T20:44:49.614Z,38.07
2023-04-27T20:47:34.496Z,38.81
2023-04-27T20:50:19.445Z,38.18
2023-04-27T20:53:04.269Z,38.46
2023-04-27T20:55:49.226Z,38.40
2023-04-27T20:58:34.201Z,38.09
2023-04-27T21:01:19.272Z,38.32
2023-04-27T21:04:04.245Z,38.07
2023-04-27T21:06:49.387Z,37.76
2023-04-27T21:09:34.384Z,38.21
2023-04-27T21:12:19.413Z,38.25
2023-04-27T21:15:04.249Z,38.21
2023-04-27T21:17:49.307Z,38.50
2023-04-27T21:20:34.364Z,38.42
2023-04-27T21:23:19.316Z,38.77
2023-04-27T21:26:04.323Z,38.33
2023-04-27T21:28:49.188Z,38.64
2023-04-27T21:31:34.140Z,39.17
2023-04-27T21:34:21.121Z,38.98
2023-04-27T21:37:06.014Z,38.53
2023-04-27T21:39:50.954Z,38.64
2023-04-27T21:42:36.065Z,38.87
2023-04-27T21:45:20.977Z,38.91
2023-04-27T21:48:06.048Z,39.07
2023-04-27T21:50:50.719Z,39.26
2023-04-27T21:53:35.623Z,38.82
2023-04-27T21:56:20.643Z,39.05
2023-04-27T21:59:05.621Z,38.89
2023-04-27T22:01:50.731Z,39.75
2023-04-27T22:04:35.826Z,40.15
2023-04-27T22:07:20.894Z,40.58
2023-04-27T22:10:05.715Z,40.43
2023-04-27T22:12:50.572Z,40.20
2023-04-27T22:15:35.467Z,39.95
2023-04-27T22:18:20.450Z,40.10
2023-04-27T22:21:05.525Z,40.30
2023-04-27T22:23:50.280Z,40.03
2023-04-27T22:26:35.270Z,39.97
2023-04-27T22:29:20.539Z,40.46
2023-04-27T22:32:05.566Z,39.16
2023-04-27T22:34:50.485Z,39.63
2023-04-27T22:37:35.220Z,39.42
2023-04-27T22:40:20.201Z,39.26
2023-04-27T22:43:05.034Z,38.82
2023-04-27T22:45:49.940Z,38.75
2023-04-27T22:48:34.853Z,37.96
2023-04-27T22:51:19.780Z,37.85
2023-04-27T22:54:04.762Z,37.97
2023-04-27T22:56:49.560Z,37.65
2023-04-27T22:59:34.468Z,36.86
2023-04-27T23:02:19.441Z,36.84
2023-04-27T23:05:04.128Z,39.36
2023-04-27T23:07:49.025Z,38.68
2023-04-27T23:10:33.965Z,38.80
2023-04-27T23:13:18.924Z,38.96
2023-04-27T23:16:03.780Z,38.83
2023-04-27T23:18:48.894Z,38.83
2023-04-27T23:21:33.787Z,38.47
2023-04-27T23:24:18.892Z,38.87
2023-04-27T23:27:03.838Z,39.06
2023-04-27T23:29:48.840Z,39.00
2023-04-27T23:32:33.790Z,38.39
2023-04-27T23:35:18.628Z,38.52
2023-04-27T23:38:03.629Z,38.56
2023-04-27T23:40:48.544Z,38.67
2023-04-27T23:43:33.557Z,39.06
2023-04-27T23:46:18.504Z,38.92
2023-04-27T23:49:03.446Z,39.03
2023-04-27T23:51:48.253Z,39.48
2023-04-27T23:54:33.256Z,39.90
2023-04-27T23:57:18.207Z,40.23
